Wilton, CA (95693)

1:02 PM PDT on October 23, 2014 (GMT -0700)
Alta Mesa Airpark | Change Station
CLOSE
Current Station
Personal Weather Station
Location: Wilton, CA
Elevation: 128 ft
Nearby Weather Stations

Elev 128 ft 38.38 °N, 121.22 °W | Updated 21 seconds ago

Partly Cloudy
Partly Cloudy
73.9 °F
Feels Like 77 °F
N
1.2
Wind Variable Wind from SW
Gusts 6.7 mph

Today
High -- | Low -- °F
--% Chance of Precip.
Yesterday
High -- | Low -- °F
Precip. -- in
7:21 AM 6:15 PM
Waning Crescent, 0% visible
Pressure 30.06 in
Visibility 10.0 miles
Clouds Mostly Cloudy 20000 ft
Heat Index 77 °F
Dew Point 56 °F
Humidity 53%
Rainfall 0.00 in
Snow Depth Not available.
UV 3 out of 12
Pollen 3.30 out of 12
Ozone Good
PM2.5 Good
Flu Activity Sporadic
METAR KMHR 231855Z 26003KT 10SM BKN200 22/12 A3006

More Conditions Fewer Conditions

Pressure 30.06 in
Visibility 10.0 miles
Clouds Mostly Cloudy 20000 ft
Heat Index 77 °F
Dew Point 56 °F
Humidity 53%
Rainfall 0.00 in
Snow Depth Not available.
UV 3 out of 12
Pollen 3.30 out of 12
Ozone Good
PM2.5 Good
Flu Activity Sporadic
METAR KMHR 231855Z 26003KT 10SM BKN200 22/12 A3006

More Conditions Fewer Conditions

10-Day Weather Forecast

Almanac

Astronomy

Oct. 23, 2014 Rise Set
Actual Time 7:21 AM PDT 6:15 PM PDT
Civil Twilight 6:54 AM PDT 6:42 PM PDT
Nautical Twilight 6:24 AM PDT 7:13 PM PDT
Astronomical Twilight 5:53 AM PDT 7:44 PM PDT
Moon 7:06 AM PDT 6:20 PM PDT
Length of Visible Light 11h 47m
Length of Day
10h 53m
Tomorrow will be 2m 18s shorter.
Waning Crescent, 0% of the Moon is Illuminated
Today
Waning Crescent
Oct 23
New
Oct 30
First Quarter
Nov 6
Full
Nov 14
Last Quarter

Today's Extremes

State Highs State Lows

Community

WunderPhotos

Upload Photos

1,764,350 photos uploaded!

WunderBlogs® & News

By Dr. Jeff Masters
Director of Meteorology, Weather Underground
By Kari Strenfel
Meteorologist, Weather Underground
By Christopher C. Burt
Weather Historian, Weather Underground
October 23, 2014
October 23, 2014
October 23, 2014

Nearby

Air Quality

  Air Quality AQ Index Pollutant
Yesterday Good
PM10
Yesterday Good
OZONE
Current Good
PM2.5
Current Good
OZONE
Thursday Good
OZONE
Friday Good
OZONE
Saturday Good
OZONE
Sunday Good
OZONE
Monday Good
OZONE
Tuesday Good
OZONE

Snow Depth

Station Depth Elevation
Rubicon #2 0 in 7500 ft
Tahoe City Cross 0 in 6750 ft
Heavenly Valley 0 in 8850 ft
Leavitt Lake 0 in 9400 ft
Monitor Pass 1 in 8350 ft

Earthquake Activity

City Distance Mag. Time & Date
Gerlach-Empire, Nevada 154 miles 2.5 7:16 AM PDT
2014-10-23
Minimum magnitude displayed is 2.5.

Coastal Water Temperatures

Place Temperature
San Francisco, CA 63.0 °F
Richmond, CA 64.0 °F
Port Chicago, CA 66.0 °F

Nearby Weather Stations